createdAt,value
2023-02-08T00:00:46.416Z,100400.38
2023-02-08T00:03:31.980Z,100576.78
2023-02-08T00:06:18.219Z,100586.38
2023-02-08T00:09:03.830Z,100616.81
2023-02-08T00:11:49.562Z,100353.72
2023-02-08T00:14:34.860Z,100583.41
2023-02-08T00:17:20.543Z,100611.28
2023-02-08T00:20:06.894Z,100379.34
2023-02-08T00:22:53.428Z,100389.31
2023-02-08T00:25:40.550Z,100602.81
2023-02-08T00:28:26.886Z,100607.75
2023-02-08T00:31:12.440Z,100476.84
2023-02-08T00:34:00.003Z,100474.41
2023-02-08T00:36:45.488Z,100572.41
2023-02-08T00:39:31.797Z,100620.03
2023-02-08T00:42:17.117Z,100625.97
2023-02-08T00:45:02.382Z,100582.06
2023-02-08T00:47:47.939Z,100607.38
2023-02-08T00:50:33.249Z,100622.75
2023-02-08T00:53:18.769Z,100649.19
2023-02-08T00:56:04.712Z,100402.69
2023-02-08T00:58:51.123Z,100454.78
2023-02-08T01:01:37.385Z,100574.66
2023-02-08T01:04:23.073Z,100636.34
2023-02-08T01:07:08.866Z,100538.56
2023-02-08T01:09:56.740Z,100627.00
2023-02-08T01:12:42.617Z,100628.72
2023-02-08T01:15:28.588Z,100414.97
2023-02-08T01:18:14.275Z,100614.72
2023-02-08T01:21:06.077Z,100669.72
2023-02-08T01:23:51.835Z,100705.00
2023-02-08T01:26:38.184Z,100449.75
2023-02-08T01:29:25.915Z,100695.16
2023-02-08T01:32:11.778Z,100659.03
2023-02-08T01:34:57.190Z,100447.00
2023-02-08T01:37:42.948Z,100464.94
2023-02-08T01:40:29.053Z,100638.94
2023-02-08T01:43:32.223Z,100517.13
2023-02-08T01:46:21.180Z,100683.44
2023-02-08T01:49:29.867Z,100689.03
2023-02-08T01:52:19.148Z,100693.66
2023-02-08T01:55:25.687Z,100700.06
2023-02-08T01:58:12.816Z,100698.56
2023-02-08T02:01:02.545Z,100604.88
2023-02-08T02:03:48.616Z,100625.16
2023-02-08T02:06:39.460Z,100695.91
2023-02-08T02:09:31.536Z,100684.09
2023-02-08T02:12:18.932Z,100689.94
2023-02-08T02:15:05.667Z,100555.50
2023-02-08T02:17:51.114Z,100700.28
2023-02-08T02:21:03.798Z,100664.44
2023-02-08T02:24:04.065Z,100748.03
2023-02-08T02:27:04.868Z,100738.00
2023-02-08T02:30:00.744Z,100744.97
2023-02-08T02:33:10.618Z,100715.50
2023-02-08T02:36:16.111Z,100735.66
2023-02-08T02:39:25.165Z,100738.97
2023-02-08T02:42:52.653Z,100736.91
2023-02-08T02:45:56.905Z,100731.59
2023-02-08T02:48:50.405Z,100781.34
2023-02-08T02:52:02.253Z,100771.25
2023-02-08T02:54:53.059Z,100769.00
2023-02-08T02:57:41.761Z,100782.06
2023-02-08T03:00:31.133Z,100755.66
2023-02-08T03:03:23.109Z,100796.59
2023-02-08T03:06:14.387Z,100767.19
2023-02-08T03:09:26.652Z,100779.22
2023-02-08T03:12:31.457Z,100813.75
2023-02-08T03:15:41.777Z,100785.13
2023-02-08T03:19:17.752Z,100809.50
2023-02-08T03:22:13.389Z,100760.16
2023-02-08T03:25:24.204Z,100782.34
2023-02-08T03:28:31.460Z,100547.59
2023-02-08T03:31:40.022Z,100779.50
2023-02-08T03:34:53.188Z,100785.69
2023-02-08T03:37:47.178Z,100563.19
2023-02-08T03:40:37.894Z,100790.34
2023-02-08T03:43:33.657Z,100793.69
2023-02-08T03:46:27.591Z,100792.50
2023-02-08T03:49:23.785Z,100797.94
2023-02-08T03:52:11.169Z,100572.47
2023-02-08T03:55:12.768Z,100580.47
2023-02-08T03:58:40.683Z,100809.47
2023-02-08T04:01:51.577Z,100818.31
2023-02-08T04:04:42.378Z,100777.34
2023-02-08T04:07:27.923Z,100595.50
2023-02-08T04:10:13.714Z,100823.38
2023-02-08T04:12:59.716Z,100825.72
2023-02-08T04:15:45.017Z,100832.00
2023-02-08T04:18:31.416Z,100816.69
2023-02-08T04:21:17.258Z,100851.63
2023-02-08T04:24:03.530Z,100856.16
2023-02-08T04:26:50.092Z,100843.31
2023-02-08T04:29:35.644Z,100830.72
2023-02-08T04:32:21.332Z,100825.56
2023-02-08T04:35:06.833Z,100599.22
2023-02-08T04:37:52.529Z,100630.53
2023-02-08T04:40:38.337Z,100802.66
2023-02-08T04:43:23.940Z,100858.19
2023-02-08T04:46:09.339Z,100847.94
2023-02-08T04:48:54.962Z,100644.16
2023-02-08T04:51:43.213Z,100847.13
2023-02-08T04:54:28.934Z,100658.97
2023-02-08T04:57:15.351Z,100839.25
2023-02-08T05:00:00.820Z,100844.69
2023-02-08T05:02:46.383Z,100883.44
2023-02-08T05:05:32.949Z,100910.25
2023-02-08T05:08:18.511Z,100885.00
2023-02-08T05:11:10.819Z,100869.25
2023-02-08T05:14:00.904Z,100884.91
2023-02-08T05:16:46.509Z,100883.03
2023-02-08T05:19:32.354Z,100896.28
2023-02-08T05:22:18.070Z,100901.75
2023-02-08T05:25:03.894Z,100914.59
2023-02-08T05:27:50.264Z,100910.41
2023-02-08T05:30:38.610Z,100683.13
2023-02-08T05:33:24.335Z,100895.13
2023-02-08T05:36:10.484Z,100851.56
2023-02-08T05:38:56.180Z,100930.66
2023-02-08T05:41:41.759Z,100941.56
2023-02-08T05:44:27.217Z,100940.00
2023-02-08T05:47:13.135Z,100939.19
2023-02-08T05:49:59.229Z,100935.09
2023-02-08T05:52:45.362Z,100919.13
2023-02-08T05:55:30.943Z,100940.34
2023-02-08T05:58:17.114Z,100959.75
2023-02-08T06:01:11.102Z,100724.56
2023-02-08T06:03:59.769Z,100958.59
2023-02-08T06:06:45.685Z,100701.97
2023-02-08T06:09:31.478Z,100954.53
2023-02-08T06:12:17.583Z,100945.13
2023-02-08T06:15:03.158Z,100934.53
2023-02-08T06:17:48.600Z,100987.75
2023-02-08T06:20:34.066Z,100720.63
2023-02-08T06:23:19.388Z,100951.31
2023-02-08T06:26:05.690Z,100726.00
2023-02-08T06:28:52.395Z,100971.31
2023-02-08T06:31:38.047Z,100984.94
2023-02-08T06:34:24.024Z,100983.63
2023-02-08T06:37:09.700Z,100741.00
2023-02-08T06:39:55.162Z,101035.88
2023-02-08T06:42:40.659Z,100775.28
2023-02-08T06:45:27.464Z,100973.19
2023-02-08T06:48:13.740Z,100958.09
2023-02-08T06:51:01.136Z,100904.22
2023-02-08T06:53:46.818Z,100978.25
2023-02-08T06:56:32.487Z,101009.16
2023-02-08T06:59:18.082Z,100817.34
2023-02-08T07:02:03.688Z,101001.22
2023-02-08T07:04:53.734Z,100980.09
2023-02-08T07:07:39.931Z,100845.13
2023-02-08T07:10:25.943Z,100977.91
2023-02-08T07:13:11.983Z,100970.66
2023-02-08T07:15:58.149Z,100977.16
2023-02-08T07:18:44.699Z,100997.25
2023-02-08T07:21:30.253Z,100988.28
2023-02-08T07:24:15.753Z,100977.72
2023-02-08T07:27:01.797Z,100764.22
2023-02-08T07:29:47.273Z,100772.28
2023-02-08T07:32:34.690Z,100999.38
2023-02-08T07:35:20.129Z,100759.66
2023-02-08T07:38:05.478Z,100993.31
2023-02-08T07:40:51.002Z,101011.16
2023-02-08T07:43:37.641Z,100997.66
2023-02-08T07:46:39.520Z,100988.75
2023-02-08T07:49:27.131Z,101019.09
2023-02-08T07:52:12.693Z,101002.41
2023-02-08T07:54:58.972Z,101012.56
2023-02-08T07:57:49.233Z,100846.59
2023-02-08T08:00:34.744Z,101019.66
2023-02-08T08:03:20.593Z,101004.91
2023-02-08T08:06:06.997Z,100839.81
2023-02-08T08:08:52.845Z,100787.97
2023-02-08T08:11:38.455Z,100781.84
2023-02-08T08:14:24.061Z,101010.44
2023-02-08T08:17:12.301Z,100981.41
2023-02-08T08:19:58.207Z,101029.72
2023-02-08T08:22:43.574Z,100800.97
2023-02-08T08:25:29.280Z,100757.72
2023-02-08T08:28:15.620Z,101009.03
2023-02-08T08:31:02.179Z,101027.03
2023-02-08T08:33:48.526Z,100966.69
2023-02-08T08:36:36.925Z,100843.19
2023-02-08T08:39:23.904Z,101040.25
2023-02-08T08:42:09.298Z,101011.00
2023-02-08T08:44:56.137Z,101020.25
2023-02-08T08:47:42.864Z,101034.44
2023-02-08T08:50:28.720Z,101042.25
2023-02-08T08:53:14.865Z,101051.78
2023-02-08T08:56:01.348Z,101080.34
2023-02-08T08:58:47.072Z,101051.13
2023-02-08T09:01:34.415Z,101042.50
2023-02-08T09:04:22.872Z,101076.78
2023-02-08T09:07:10.680Z,101042.91
2023-02-08T09:09:56.521Z,101064.94
2023-02-08T09:12:42.222Z,101103.63
2023-02-08T09:15:28.204Z,101036.25
2023-02-08T09:18:14.212Z,101011.97
2023-02-08T09:21:15.745Z,101060.25
2023-02-08T09:24:02.789Z,101086.91
2023-02-08T09:26:49.913Z,100876.13
2023-02-08T09:29:39.640Z,101044.63
2023-02-08T09:32:30.880Z,101040.50
2023-02-08T09:35:16.816Z,101050.94
2023-02-08T09:38:04.621Z,101034.13
2023-02-08T09:41:22.675Z,101050.16
2023-02-08T09:44:30.512Z,101050.09
2023-02-08T09:47:23.272Z,100842.94
2023-02-08T09:50:21.189Z,101079.34
2023-02-08T09:53:21.542Z,100821.28
2023-02-08T09:56:12.761Z,101048.34
2023-02-08T09:59:00.794Z,100934.69
2023-02-08T10:01:49.484Z,101004.19
2023-02-08T10:05:07.883Z,100868.38
2023-02-08T10:07:54.838Z,101027.44
2023-02-08T10:11:06.792Z,101055.78
2023-02-08T10:14:00.080Z,101046.41
2023-02-08T10:16:59.506Z,101045.44
2023-02-08T10:19:51.162Z,101091.50
2023-02-08T10:22:57.026Z,101047.38
2023-02-08T10:26:14.486Z,101054.25
2023-02-08T10:29:30.922Z,101049.13
2023-02-08T10:32:37.346Z,101031.34
2023-02-08T10:35:37.358Z,100837.91
2023-02-08T10:38:45.271Z,100920.31
2023-02-08T10:41:37.344Z,101044.63
2023-02-08T10:44:48.113Z,101074.97
2023-02-08T10:47:46.320Z,100864.53
2023-02-08T10:50:40.243Z,101057.53
2023-02-08T10:53:25.684Z,101034.63
2023-02-08T10:56:30.850Z,101045.22
2023-02-08T10:59:24.313Z,101017.94
2023-02-08T11:02:22.738Z,101004.50
2023-02-08T11:05:21.102Z,100816.44
2023-02-08T11:08:13.793Z,101014.88
2023-02-08T11:11:04.268Z,100947.38
2023-02-08T11:14:07.425Z,100968.31
2023-02-08T11:16:56.930Z,100810.34
2023-02-08T11:19:46.381Z,101005.84
2023-02-08T11:22:38.295Z,100794.31
2023-02-08T11:25:37.970Z,100779.81
2023-02-08T11:28:28.460Z,100858.94
2023-02-08T11:31:21.143Z,100941.06
2023-02-08T11:34:11.714Z,100997.09
2023-02-08T11:37:14.189Z,100985.00
2023-02-08T11:40:03.845Z,100758.41
2023-02-08T11:42:52.032Z,100966.09
2023-02-08T11:45:37.821Z,100931.47
2023-02-08T11:48:38.422Z,100836.59
2023-02-08T11:51:30.593Z,100960.66
2023-02-08T11:54:42.539Z,100984.00
2023-02-08T11:57:28.358Z,100937.88
2023-02-08T12:00:23.497Z,100992.31
2023-02-08T12:03:18.507Z,100958.81
2023-02-08T12:06:55.088Z,100975.94
2023-02-08T12:10:08.179Z,100988.16
2023-02-08T12:13:21.865Z,100956.72
2023-02-08T12:16:26.076Z,100979.09
2023-02-08T12:19:20.687Z,100978.91
2023-02-08T12:22:14.034Z,100948.66
2023-02-08T12:25:24.632Z,100966.44
2023-02-08T12:28:20.095Z,100988.25
2023-02-08T12:31:38.617Z,100957.94
2023-02-08T12:34:42.635Z,100973.78
2023-02-08T12:38:04.356Z,100964.16
2023-02-08T12:41:19.555Z,100978.34
2023-02-08T12:44:23.843Z,100974.41
2023-02-08T12:47:16.838Z,100970.69
2023-02-08T12:50:02.354Z,101019.44
2023-02-08T12:52:57.379Z,100996.00
2023-02-08T12:55:44.577Z,101011.81
2023-02-08T12:58:38.752Z,100783.25
2023-02-08T13:01:44.861Z,100994.06
2023-02-08T13:04:38.693Z,100957.19
2023-02-08T13:07:29.698Z,100825.72
2023-02-08T13:10:34.542Z,101023.94
2023-02-08T13:13:25.082Z,100999.06
2023-02-08T13:16:18.087Z,101027.53
2023-02-08T13:19:23.790Z,101009.34
2023-02-08T13:22:12.827Z,100975.75
2023-02-08T13:25:07.113Z,100791.66
2023-02-08T13:27:54.118Z,100996.88
2023-02-08T13:30:40.968Z,100988.81
2023-02-08T13:33:55.779Z,100997.88
2023-02-08T13:36:58.159Z,101005.97
2023-02-08T13:39:46.614Z,101011.06
2023-02-08T13:42:43.127Z,101017.72
2023-02-08T13:45:42.064Z,100954.22
2023-02-08T13:48:28.181Z,100941.69
2023-02-08T13:51:33.155Z,100999.06
2023-02-08T13:54:19.210Z,100995.34
2023-02-08T13:57:48.406Z,100991.97
2023-02-08T14:00:36.813Z,101002.66
2023-02-08T14:03:27.996Z,100938.84
2023-02-08T14:06:23.873Z,100945.75
2023-02-08T14:09:28.816Z,100775.59
2023-02-08T14:12:26.746Z,101007.88
2023-02-08T14:15:15.769Z,100993.59
2023-02-08T14:18:02.490Z,100840.56
2023-02-08T14:21:02.045Z,100956.81
2023-02-08T14:24:00.738Z,100976.91
2023-02-08T14:26:46.460Z,100931.00
2023-02-08T14:29:33.062Z,100973.53
2023-02-08T14:32:30.581Z,100736.28
2023-02-08T14:35:18.353Z,100955.75
2023-02-08T14:38:19.280Z,100948.22
2023-02-08T14:41:05.324Z,100928.63
2023-02-08T14:43:50.943Z,100826.25
2023-02-08T14:46:40.873Z,100990.66
2023-02-08T14:49:27.731Z,100949.00
2023-02-08T14:52:22.029Z,100940.81
2023-02-08T14:55:19.938Z,100964.59
2023-02-08T14:58:09.125Z,100954.13
2023-02-08T15:00:56.456Z,100769.78
2023-02-08T15:03:43.482Z,100951.97
2023-02-08T15:06:37.833Z,100976.50
2023-02-08T15:09:38.110Z,100950.84
2023-02-08T15:12:35.803Z,100969.16
2023-02-08T15:15:21.532Z,100975.50
2023-02-08T15:18:18.982Z,100920.19
2023-02-08T15:21:08.527Z,100953.13
2023-02-08T15:24:15.270Z,100945.41
2023-02-08T15:27:00.993Z,100728.00
2023-02-08T15:29:48.679Z,100963.38
2023-02-08T15:32:35.018Z,100935.44
2023-02-08T15:35:22.939Z,100913.72
2023-02-08T15:38:19.163Z,100904.13
2023-02-08T15:41:09.580Z,100738.47
2023-02-08T15:44:22.825Z,100763.66
2023-02-08T15:47:17.406Z,100956.44
2023-02-08T15:50:06.722Z,100985.44
2023-02-08T15:52:58.789Z,100845.66
2023-02-08T15:55:50.130Z,100959.81
2023-02-08T15:58:42.043Z,100958.28
2023-02-08T16:01:31.934Z,100944.72
2023-02-08T16:04:18.042Z,100942.78
2023-02-08T16:07:03.748Z,100728.09
2023-02-08T16:09:49.609Z,100986.66
2023-02-08T16:12:38.315Z,100734.47
2023-02-08T16:15:40.067Z,100942.91
2023-02-08T16:18:47.080Z,100727.38
2023-02-08T16:21:39.067Z,100908.75
2023-02-08T16:24:27.983Z,100940.03
2023-02-08T16:27:33.845Z,100773.94
2023-02-08T16:30:24.146Z,100726.28
2023-02-08T16:33:10.042Z,100874.13
2023-02-08T16:36:07.320Z,100937.78
2023-02-08T16:39:18.648Z,100933.19
2023-02-08T16:42:31.883Z,100931.00
2023-02-08T16:45:24.850Z,100757.75
2023-02-08T16:48:36.124Z,100948.03
2023-02-08T16:51:34.803Z,100927.44
2023-02-08T16:54:26.508Z,100947.66
2023-02-08T16:57:17.695Z,100764.19
2023-02-08T17:00:12.804Z,100924.63
2023-02-08T17:03:09.228Z,100916.16
2023-02-08T17:05:57.788Z,100875.97
2023-02-08T17:08:43.755Z,100942.19
2023-02-08T17:11:29.864Z,100903.53
2023-02-08T17:14:15.796Z,100947.88
2023-02-08T17:17:01.540Z,100926.91
2023-02-08T17:19:56.111Z,100922.72
2023-02-08T17:23:15.905Z,100797.91
2023-02-08T17:26:01.795Z,100937.75
2023-02-08T17:28:50.185Z,100926.19
2023-02-08T17:31:36.890Z,100945.31
2023-02-08T17:34:24.053Z,100946.03
2023-02-08T17:37:13.486Z,100755.19
2023-02-08T17:40:05.847Z,100962.19
2023-02-08T17:42:55.959Z,100942.13
2023-02-08T17:45:44.753Z,100911.53
2023-02-08T17:48:31.854Z,100957.56
2023-02-08T17:51:26.684Z,100968.53
2023-02-08T17:54:16.699Z,100910.84
2023-02-08T17:57:05.193Z,100954.00
2023-02-08T18:00:10.485Z,100958.63
2023-02-08T18:03:26.980Z,100785.25
2023-02-08T18:06:21.387Z,100946.28
2023-02-08T18:09:11.741Z,100748.97
2023-02-08T18:12:02.195Z,100719.06
2023-02-08T18:14:49.606Z,100714.38
2023-02-08T18:17:37.198Z,100938.03
2023-02-08T18:20:26.635Z,100926.19
2023-02-08T18:23:14.718Z,100959.41
2023-02-08T18:26:09.660Z,100723.38
2023-02-08T18:28:57.972Z,100952.75
2023-02-08T18:31:44.952Z,100713.03
2023-02-08T18:34:53.418Z,100715.50
2023-02-08T18:37:51.244Z,100934.09
2023-02-08T18:40:48.910Z,100942.53
2023-02-08T18:43:37.436Z,100959.63
2023-02-08T18:46:29.098Z,100892.63
2023-02-08T18:49:17.719Z,100740.00
2023-02-08T18:52:33.411Z,100949.00
2023-02-08T18:55:21.189Z,100942.56
